createdAt,value
2022-11-13T04:03:53.670Z,9.00
2022-11-13T04:29:45.790Z,9.00
2022-11-13T04:59:40.787Z,8.90
2022-11-13T05:40:52.264Z,8.80
2022-11-13T06:06:15.056Z,8.90
2022-11-13T06:31:15.717Z,9.00
2022-11-13T06:51:30.241Z,9.10
2022-11-13T07:27:20.947Z,9.30
2022-11-13T07:57:30.992Z,9.30
2022-11-13T08:27:32.573Z,9.30
2022-11-13T09:03:37.716Z,9.90
2022-11-13T09:28:51.734Z,9.90
2022-11-13T09:49:17.630Z,10.20
2022-11-13T10:14:35.822Z,10.10
2022-11-13T10:34:21.161Z,10.30
2022-11-13T10:59:47.580Z,10.10
2022-11-13T11:25:45.128Z,10.00
2022-11-13T12:01:18.775Z,10.60
2022-11-13T12:26:04.615Z,10.60
2022-11-13T12:52:14.842Z,10.70
2022-11-13T12:56:29.734Z,10.80
2022-11-13T13:32:17.970Z,10.60
2022-11-13T14:18:14.478Z,10.00
2022-11-13T14:48:39.875Z,9.80
2022-11-13T15:08:49.964Z,9.60
2022-11-13T15:34:20.052Z,9.60
2022-11-13T15:54:30.876Z,9.60
2022-11-13T16:19:45.297Z,9.60
2022-11-13T17:10:36.806Z,9.60
2022-11-13T17:35:40.521Z,9.70
2022-11-13T18:00:52.188Z,9.50
2022-11-13T18:11:18.198Z,9.50
2022-11-13T18:36:24.967Z,9.40
2022-11-13T19:12:15.272Z,9.20
2022-11-13T19:42:40.755Z,8.90
2022-11-13T20:02:44.324Z,8.90
2022-11-13T20:33:22.567Z,8.80
2022-11-13T20:53:20.251Z,8.70
2022-11-13T21:23:44.365Z,8.60
2022-11-13T21:44:20.603Z,8.50
2022-11-13T22:19:54.716Z,8.50
2022-11-13T22:44:56.499Z,8.50
2022-11-13T23:05:10.473Z,8.50
2022-11-13T23:30:48.119Z,8.40
